Time;durP1;ratioP1;P1;durP2;ratioP2;P2;SDS_P1;SDS_P2;PMS_P1;PMS_P2;Temp;Humidity;BMP_temperature;BMP_pressure;BME280_temperature;BME280_humidity;BME280_pressure;Samples;Min_cycle;Max_cycle;Signal;HPM_P1;HPM_P2
2023/08/04 00:01:03;;;;;;;2.87;1.80;;;;;;;15.88;100.00;95961.72;4988422;28;105476;-62
2023/08/04 00:03:30;;;;;;;3.43;1.90;;;;;;;15.93;100.00;95968.88;4992416;28;102080;-62
2023/08/04 00:05:57;;;;;;;2.90;1.60;;;;;;;15.85;100.00;95988.28;4988182;28;105679;-62
2023/08/04 00:08:26;;;;;;;3.27;1.70;;;;;;;15.70;100.00;96010.00;4988960;28;102110;-62
2023/08/04 00:10:54;;;;;;;3.90;2.10;;;;;;;15.60;100.00;96010.16;4988851;28;105449;-62
2023/08/04 00:13:21;;;;;;;4.20;1.77;;;;;;;15.62;100.00;96011.47;4988111;28;105442;-62
2023/08/04 00:15:51;;;;;;;3.13;1.83;;;;;;;15.68;100.00;96010.28;4988719;28;102107;-62
2023/08/04 00:18:18;;;;;;;3.77;1.43;;;;;;;15.71;100.00;96006.22;4988590;28;105384;-62
2023/08/04 00:20:45;;;;;;;2.23;1.50;;;;;;;15.70;100.00;96007.31;4987364;28;105457;-62
2023/08/04 00:23:12;;;;;;;2.87;1.70;;;;;;;15.67;100.00;96008.69;4988742;28;101861;-62
2023/08/04 00:25:41;;;;;;;2.07;1.60;;;;;;;15.58;100.00;96017.69;4991319;28;105486;-62
2023/08/04 00:28:08;;;;;;;2.43;1.53;;;;;;;15.54;100.00;96016.69;4989737;28;102040;-62
2023/08/04 00:30:35;;;;;;;2.70;1.57;;;;;;;15.54;100.00;96009.41;4988602;28;105364;-62
2023/08/04 00:33:02;;;;;;;3.93;1.63;;;;;;;15.62;100.00;96011.47;4987989;28;105705;-62
2023/08/04 00:35:29;;;;;;;2.80;1.80;;;;;;;15.56;100.00;96009.13;4988346;28;102334;-62
2023/08/04 00:37:56;;;;;;;4.60;1.83;;;;;;;15.50;100.00;96005.75;4988403;28;105857;-62
2023/08/04 00:40:23;;;;;;;2.93;1.77;;;;;;;15.48;100.00;96007.13;4987846;28;105471;-62
2023/08/04 00:42:52;;;;;;;2.30;1.83;;;;;;;15.55;100.00;95999.50;4988615;28;102201;-61
2023/08/04 00:45:19;;;;;;;2.00;1.80;;;;;;;15.54;100.00;95993.34;4988481;28;105212;-61
2023/08/04 00:47:45;;;;;;;2.70;1.90;;;;;;;15.60;100.00;95999.44;4992499;28;105883;-61
2023/08/04 00:50:13;;;;;;;3.70;2.10;;;;;;;15.58;100.00;95999.72;4991953;28;104825;-61
2023/08/04 00:52:41;;;;;;;2.13;1.70;;;;;;;15.53;100.00;95997.09;4991323;28;105334;-61
2023/08/04 00:55:09;;;;;;;2.30;1.63;;;;;;;15.50;100.00;95997.69;4991989;28;102232;-61
2023/08/04 00:57:37;;;;;;;2.20;2.00;;;;;;;15.49;100.00;96001.44;4993251;28;102565;-61
2023/08/04 01:00:07;;;;;;;2.87;1.80;;;;;;;15.53;100.00;95996.31;4991471;28;105647;-61
2023/08/04 01:02:34;;;;;;;2.13;1.67;;;;;;;15.50;100.00;96003.06;4991907;28;102105;-61
2023/08/04 01:05:02;;;;;;;3.93;1.70;;;;;;;15.50;100.00;95992.34;4991776;28;105540;-62
2023/08/04 01:07:33;;;;;;;2.70;2.10;;;;;;;15.50;100.00;95988.84;4991145;28;105784;-61
2023/08/04 01:10:09;;;;;;;4.27;1.50;;;;;;;15.47;100.00;95989.44;4995184;28;102006;-61
2023/08/04 01:12:44;;;;;;;1.63;1.40;;;;;;;15.46;100.00;95990.50;4991102;28;105596;-61
2023/08/04 01:15:14;;;;;;;2.20;1.40;;;;;;;15.40;100.00;95989.00;4991864;28;101958;-61
2023/08/04 01:17:41;;;;;;;1.67;1.30;;;;;;;15.40;100.00;95991.69;4991604;28;104233;-61
2023/08/04 01:20:09;;;;;;;2.93;1.20;;;;;;;15.42;100.00;95992.19;4990629;28;105876;-62
2023/08/04 01:22:38;;;;;;;4.33;1.70;;;;;;;15.38;100.00;95983.91;4992940;28;101845;-61
2023/08/04 01:25:08;;;;;;;3.37;1.30;;;;;;;15.33;100.00;95969.81;4991738;28;104575;-61
2023/08/04 01:27:39;;;;;;;1.40;1.30;;;;;;;15.31;100.00;95974.66;4990602;28;105466;-61
2023/08/04 01:30:11;;;;;;;2.50;1.43;;;;;;;15.27;100.00;95970.94;4994811;28;102018;-61
2023/08/04 01:32:38;;;;;;;1.67;1.20;;;;;;;15.25;100.00;95954.34;4990664;28;105926;-62
2023/08/04 01:35:07;;;;;;;2.70;1.30;;;;;;;15.26;100.00;95953.28;4991254;28;101942;-62
2023/08/04 01:37:34;;;;;;;2.43;1.43;;;;;;;15.27;100.00;95941.47;4991147;28;105385;-62
2023/08/04 01:40:03;;;;;;;2.10;1.50;;;;;;;15.28;100.00;95940.38;4990592;28;105543;-62
2023/08/04 01:42:30;;;;;;;2.00;1.43;;;;;;;15.18;100.00;95940.53;4991100;28;101982;-62
2023/08/04 01:44:57;;;;;;;2.40;1.40;;;;;;;15.18;100.00;95940.53;4991260;28;105277;-62
2023/08/04 01:47:24;;;;;;;2.10;1.20;;;;;;;15.19;100.00;95944.78;4990530;28;106280;-62
2023/08/04 01:49:50;;;;;;;5.63;1.30;;;;;;;15.13;100.00;95938.72;4992393;28;101872;-62
2023/08/04 01:52:17;;;;;;;1.33;1.23;;;;;;;15.15;100.00;95935.75;4995324;28;102937;-62
2023/08/04 01:54:44;;;;;;;2.03;1.33;;;;;;;15.11;100.00;95932.06;4991024;28;102096;-62
2023/08/04 01:57:13;;;;;;;1.37;1.10;;;;;;;15.11;100.00;95938.22;4991189;28;104641;-62
2023/08/04 01:59:41;;;;;;;2.17;1.13;;;;;;;15.13;100.00;95940.59;4989764;28;105494;-62
2023/08/04 02:02:08;;;;;;;2.53;1.30;;;;;;;15.09;100.00;95948.41;4990757;28;102218;-62
2023/08/04 02:04:35;;;;;;;2.67;1.40;;;;;;;15.06;100.00;95940.97;4990902;28;105304;-62
2023/08/04 02:07:01;;;;;;;2.43;1.40;;;;;;;15.11;100.00;95940.09;4991594;28;102874;-62
2023/08/04 02:09:29;;;;;;;2.10;1.10;;;;;;;15.08;100.00;95936.13;4990962;28;102017;-62
2023/08/04 02:11:57;;;;;;;1.30;1.20;;;;;;;15.10;100.00;95927.81;4990731;28;105271;-62
2023/08/04 02:14:27;;;;;;;1.93;1.20;;;;;;;15.07;100.00;95923.81;4994716;28;102768;-62
2023/08/04 02:16:54;;;;;;;1.30;1.20;;;;;;;15.12;100.00;95913.03;4990742;28;105956;-62
2023/08/04 02:19:22;;;;;;;2.30;1.17;;;;;;;15.14;100.00;95915.41;4989982;28;105517;-62
2023/08/04 02:21:51;;;;;;;1.17;1.07;;;;;;;15.13;100.00;95911.13;4991495;28;102091;-62
2023/08/04 02:24:18;;;;;;;1.50;1.40;;;;;;;15.10;100.00;95912.50;4990819;28;105815;-62
2023/08/04 02:26:45;;;;;;;2.07;1.17;;;;;;;15.12;100.00;95914.91;4989967;28;105457;-62
2023/08/04 02:29:13;;;;;;;1.83;1.20;;;;;;;15.13;100.00;95916.50;4991498;28;101893;-62
2023/08/04 02:31:42;;;;;;;2.60;1.20;;;;;;;15.13;100.00;95919.16;4990483;28;104186;-62
2023/08/04 02:34:09;;;;;;;1.83;1.20;;;;;;;15.10;100.00;95925.13;4989738;28;105900;-62
2023/08/04 02:36:36;;;;;;;2.13;1.10;;;;;;;15.13;100.00;95924.53;4994046;28;102044;-62
2023/08/04 02:39:03;;;;;;;2.17;1.10;;;;;;;15.09;100.00;95931.56;4991107;28;102592;-62
2023/08/04 02:41:30;;;;;;;1.30;1.20;;;;;;;15.07;100.00;95939.88;4991712;28;101819;-62
2023/08/04 02:43:57;;;;;;;1.60;1.10;;;;;;;15.07;100.00;95934.53;4991531;28;102438;-62
2023/08/04 02:46:25;;;;;;;4.10;1.40;;;;;;;15.08;100.00;95930.75;4989657;28;104042;-62
2023/08/04 02:48:54;;;;;;;2.70;1.27;;;;;;;15.09;100.00;95929.66;4990293;28;102002;-62
2023/08/04 02:51:20;;;;;;;1.10;1.10;;;;;;;15.12;100.00;95923.75;4990156;28;105447;-62
2023/08/04 02:53:51;;;;;;;2.53;1.20;;;;;;;15.13;100.00;95929.88;4989580;28;105879;-62
2023/08/04 02:56:19;;;;;;;2.60;1.40;;;;;;;15.15;100.00;95927.72;4990191;28;101982;-62
2023/08/04 02:58:47;;;;;;;2.80;1.50;;;;;;;15.17;100.00;95922.88;4992707;28;105282;-62
2023/08/04 03:01:15;;;;;;;2.47;1.40;;;;;;;15.19;100.00;95924.19;4990141;28;102057;-62
2023/08/04 03:03:42;;;;;;;2.10;1.30;;;;;;;15.16;100.00;95922.06;4991064;28;102788;-62
2023/08/04 03:06:11;;;;;;;2.27;1.30;;;;;;;15.12;100.00;95914.91;4990679;28;102779;-62
2023/08/04 03:08:37;;;;;;;2.80;1.43;;;;;;;15.07;100.00;95914.97;4990059;28;101933;-62
2023/08/04 03:11:09;;;;;;;2.67;1.23;;;;;;;15.04;100.00;95907.53;4988886;28;105391;-62
2023/08/04 03:13:36;;;;;;;1.90;1.27;;;;;;;15.08;100.00;95908.53;4989157;28;105480;-62
2023/08/04 03:16:03;;;;;;;1.30;1.20;;;;;;;15.03;100.00;95901.38;4991129;28;101816;-62
2023/08/04 03:18:31;;;;;;;1.33;1.23;;;;;;;15.05;100.00;95909.13;4989818;28;105502;-62
2023/08/04 03:21:00;;;;;;;2.80;1.60;;;;;;;15.09;100.00;95915.50;4993405;28;102077;-62
2023/08/04 03:23:29;;;;;;;4.30;1.30;;;;;;;15.06;100.00;95916.88;4990808;28;103082;-62
2023/08/04 03:25:56;;;;;;;2.30;1.57;;;;;;;15.00;100.00;95927.94;4990304;28;102693;-62
2023/08/04 03:28:22;;;;;;;2.07;1.60;;;;;;;15.00;100.00;95934.06;4990441;28;101828;-62
2023/08/04 03:30:49;;;;;;;2.70;1.60;;;;;;;15.00;100.00;95931.38;4990904;28;102760;-62
2023/08/04 03:33:16;;;;;;;3.20;1.50;;;;;;;14.98;100.00;95940.81;4990341;28;102833;-62
2023/08/04 03:35:43;;;;;;;2.10;1.13;;;;;;;15.02;100.00;95947.19;4990759;28;102009;-62
2023/08/04 03:38:11;;;;;;;1.13;1.10;;;;;;;14.96;100.00;95954.50;4990955;28;102443;-62
2023/08/04 03:40:40;;;;;;;1.27;1.10;;;;;;;14.98;100.00;95956.91;4992119;28;105740;-62
2023/08/04 03:43:06;;;;;;;3.07;1.20;;;;;;;14.97;100.00;95948.06;4990572;28;102484;-62
2023/08/04 03:45:34;;;;;;;1.00;1.00;;;;;;;14.97;100.00;95947.25;4988779;28;105987;-62
2023/08/04 03:48:00;;;;;;;1.20;1.10;;;;;;;14.92;100.00;95949.97;4989438;28;101972;-62
2023/08/04 03:50:27;;;;;;;1.80;1.10;;;;;;;14.86;100.00;95948.47;4989144;28;105345;-62
2023/08/04 03:52:54;;;;;;;1.77;1.00;;;;;;;14.85;100.00;95942.31;4988589;28;105236;-62
2023/08/04 03:55:21;;;;;;;1.00;0.90;;;;;;;14.87;100.00;95945.50;4989167;28;101990;-62
2023/08/04 03:57:49;;;;;;;1.20;1.10;;;;;;;14.88;100.00;95959.69;4988902;28;104139;-62
2023/08/04 04:00:16;;;;;;;1.83;1.10;;;;;;;14.91;100.00;95969.81;4988675;28;106100;-62
2023/08/04 04:02:43;;;;;;;3.47;1.27;;;;;;;14.91;100.00;95980.53;4992555;28;102029;-62
2023/08/04 04:05:10;;;;;;;2.27;1.30;;;;;;;14.92;100.00;95972.22;4988439;28;105434;-62
2023/08/04 04:07:37;;;;;;;2.90;1.17;;;;;;;14.94;100.00;95988.78;4988961;28;102204;-62
2023/08/04 04:10:04;;;;;;;1.70;0.97;;;;;;;14.98;100.00;95989.81;4988968;28;104935;-62
2023/08/04 04:12:31;;;;;;;3.37;1.03;;;;;;;14.97;100.00;95992.75;4988428;28;105520;-62
2023/08/04 04:14:59;;;;;;;1.53;0.93;;;;;;;14.94;100.00;95988.78;4990288;28;101792;-62
2023/08/04 04:17:26;;;;;;;1.63;1.00;;;;;;;14.97;100.00;95996.25;4988940;28;105064;-62
2023/08/04 04:19:53;;;;;;;2.13;1.20;;;;;;;14.97;100.00;95992.75;4988138;28;103908;-62
2023/08/04 04:22:19;;;;;;;1.73;1.00;;;;;;;14.97;100.00;96003.47;4988268;28;101916;-62
2023/08/04 04:24:46;;;;;;;3.00;1.00;;;;;;;14.98;100.00;96003.19;4991534;28;104021;-62
2023/08/04 04:27:13;;;;;;;1.70;1.07;;;;;;;14.97;100.00;96004.28;4988244;28;101999;-62
2023/08/04 04:29:40;;;;;;;3.50;1.47;;;;;;;14.96;100.00;96009.91;4988522;28;104909;-63
2023/08/04 04:32:08;;;;;;;1.90;1.17;;;;;;;14.94;100.00;95999.47;4988223;28;103846;-63
2023/08/04 04:34:35;;;;;;;1.40;1.13;;;;;;;14.93;100.00;95997.91;4988578;28;102231;-62
2023/08/04 04:37:02;;;;;;;3.33;1.17;;;;;;;14.93;100.00;95994.44;4988510;28;104923;-62
2023/08/04 04:39:29;;;;;;;2.40;1.00;;;;;;;14.93;100.00;95991.75;4987841;28;105108;-61
2023/08/04 04:41:56;;;;;;;1.20;0.83;;;;;;;14.96;100.00;95983.13;4988401;28;102057;-61
2023/08/04 04:44:23;;;;;;;2.37;1.07;;;;;;;14.96;100.00;95991.16;4988344;28;105506;-62
2023/08/04 04:46:50;;;;;;;2.23;1.10;;;;;;;14.94;100.00;95990.66;4991391;28;105684;-62
2023/08/04 04:49:19;;;;;;;3.60;1.10;;;;;;;14.91;100.00;95989.38;4989787;28;102914;-62
2023/08/04 04:51:46;;;;;;;1.73;1.00;;;;;;;14.86;100.00;95986.75;4989100;28;102722;-63
2023/08/04 04:54:13;;;;;;;1.10;1.00;;;;;;;14.88;100.00;95986.47;4988383;28;102023;-62
2023/08/04 04:56:40;;;;;;;2.20;1.00;;;;;;;14.85;100.00;95982.47;4988391;28;105397;-63
2023/08/04 04:59:07;;;;;;;1.50;0.90;;;;;;;14.80;100.00;95993.25;4987480;28;106038;-63
2023/08/04 05:01:34;;;;;;;1.30;1.03;;;;;;;14.79;100.00;96001.56;4988091;28;102047;-62
2023/08/04 05:04:01;;;;;;;2.87;1.20;;;;;;;14.78;100.00;95994.63;4988249;28;105583;-62
2023/08/04 05:06:29;;;;;;;2.57;0.87;;;;;;;14.81;100.00;96012.75;4987770;28;106028;-63
2023/08/04 05:08:55;;;;;;;1.17;0.90;;;;;;;14.79;100.00;96009.59;4991710;28;102013;-63
2023/08/04 05:11:22;;;;;;;1.10;0.90;;;;;;;14.81;100.00;96007.41;4987536;28;105844;-63
2023/08/04 05:13:49;;;;;;;0.83;0.83;;;;;;;14.82;100.00;96012.50;4988017;28;102311;-68
2023/08/04 05:16:16;;;;;;;3.03;1.07;;;;;;;14.78;100.00;96014.13;4989433;28;102946;-63
2023/08/04 05:18:45;;;;;;;1.80;0.90;;;;;;;14.82;100.00;96017.06;4987354;28;105453;-64
2023/08/04 05:21:12;;;;;;;1.80;0.87;;;;;;;14.86;100.00;96008.16;4987361;28;101995;-64
2023/08/04 05:23:40;;;;;;;2.87;1.10;;;;;;;14.84;100.00;96014.88;4987755;28;104303;-63
2023/08/04 05:26:07;;;;;;;2.70;1.10;;;;;;;14.85;100.00;96019.16;4987301;28;105452;-66
2023/08/04 05:28:34;;;;;;;2.33;0.93;;;;;;;14.85;100.00;96019.16;4987775;28;103681;-63
2023/08/04 05:31:03;;;;;;;1.93;1.10;;;;;;;14.93;100.00;96016.63;4990788;28;105730;-82
2023/08/04 05:33:31;;;;;;;1.93;1.07;;;;;;;14.99;100.00;96017.38;4988793;28;102066;-65
2023/08/04 05:35:59;;;;;;;1.23;0.93;;;;;;;15.01;100.00;96020.56;4992636;28;102644;-66
2023/08/04 05:38:25;;;;;;;1.17;1.00;;;;;;;15.07;100.00;96016.75;4990657;28;105516;-66
2023/08/04 05:40:55;;;;;;;3.33;1.10;;;;;;;15.06;100.00;96007.94;4991196;28;102008;-66
2023/08/04 05:43:23;;;;;;;1.27;1.17;;;;;;;15.07;100.00;95992.63;4976502;28;105202;-66
2023/08/04 05:45:50;;;;;;;2.73;1.10;;;;;;;15.10;100.00;95990.19;4971307;28;105463;-65
2023/08/04 05:48:17;;;;;;;1.57;0.80;;;;;;;15.10;100.00;95976.00;4971763;28;101880;-65
2023/08/04 05:50:43;;;;;;;1.53;1.00;;;;;;;15.08;100.00;95986.19;4974757;28;105884;-66
2023/08/04 05:53:10;;;;;;;1.07;0.90;;;;;;;15.11;100.00;95977.59;4971818;28;101999;-66
2023/08/04 05:55:37;;;;;;;1.10;1.00;;;;;;;15.10;100.00;95971.44;4971645;28;105004;-66
2023/08/04 05:58:05;;;;;;;1.60;1.07;;;;;;;15.18;100.00;95961.97;4971199;28;105228;-66
2023/08/04 06:00:35;;;;;;;2.10;0.90;;;;;;;15.26;100.00;95974.72;4971857;28;101981;-66
2023/08/04 06:03:02;;;;;;;2.40;1.40;;;;;;;15.28;100.00;95968.00;4971610;28;105045;-66
2023/08/04 06:05:29;;;;;;;2.63;1.60;;;;;;;15.31;100.00;95964.72;4970896;28;104009;-66
2023/08/04 06:07:55;;;;;;;1.10;1.00;;;;;;;15.26;100.00;95961.31;4971492;28;102008;-65
2023/08/04 06:10:23;;;;;;;2.17;1.03;;;;;;;15.26;100.00;95950.59;4971704;28;104955;-66
2023/08/04 06:12:50;;;;;;;2.53;1.00;;;;;;;15.28;100.00;95945.75;4974410;28;105429;-66
2023/08/04 06:15:18;;;;;;;1.30;1.17;;;;;;;15.29;100.00;95941.97;4971644;28;105116;-66
2023/08/04 06:17:47;;;;;;;1.90;1.00;;;;;;;15.32;100.00;95941.41;4970838;28;105302;-66
2023/08/04 06:20:14;;;;;;;2.33;0.90;;;;;;;15.33;100.00;95943.03;4971276;28;101921;-66
2023/08/04 06:22:40;;;;;;;1.23;1.00;;;;;;;15.34;100.00;95934.72;4971237;28;105022;-66
2023/08/04 06:25:08;;;;;;;1.30;1.20;;;;;;;15.34;100.00;95939.25;4970765;28;105666;-66
2023/08/04 06:27:35;;;;;;;1.20;1.10;;;;;;;15.33;100.00;95938.47;4971263;28;102008;-66
2023/08/04 06:30:02;;;;;;;1.40;1.00;;;;;;;15.34;100.00;95928.53;4976579;28;104906;-66
2023/08/04 06:32:30;;;;;;;1.43;0.90;;;;;;;15.41;100.00;95923.59;4990425;28;104117;-66
2023/08/04 06:34:57;;;;;;;2.30;1.10;;;;;;;15.42;100.00;95925.22;4994353;28;101947;-66
2023/08/04 06:37:24;;;;;;;0.93;0.93;;;;;;;15.47;100.00;95923.25;4990512;28;105557;-66
2023/08/04 06:39:51;;;;;;;3.60;0.90;;;;;;;15.49;100.00;95914.91;4991000;28;102002;-66
2023/08/04 06:42:18;;;;;;;0.80;0.80;;;;;;;15.49;100.00;95920.28;4991016;28;105493;-66
2023/08/04 06:44:45;;;;;;;1.00;0.93;;;;;;;15.50;100.00;95916.50;4990186;28;105209;-66
2023/08/04 06:47:13;;;;;;;1.00;0.90;;;;;;;15.52;100.00;95919.66;4990966;28;102012;-66
2023/08/04 06:49:42;;;;;;;0.73;0.73;;;;;;;15.57;100.00;95922.28;4992347;28;101712;-66
2023/08/04 06:52:09;;;;;;;2.23;1.03;;;;;;;15.63;100.00;95926.47;4990005;28;104459;-66
2023/08/04 06:54:36;;;;;;;0.73;0.73;;;;;;;15.64;100.00;95920.81;4990802;28;102074;-66
2023/08/04 06:57:04;;;;;;;1.07;0.80;;;;;;;15.73;100.00;95918.25;4993725;28;104352;-65
2023/08/04 06:59:30;;;;;;;1.07;0.90;;;;;;;15.76;100.00;95920.38;4990893;28;102002;-65
2023/08/04 07:01:57;;;;;;;0.87;0.83;;;;;;;15.84;100.00;95927.72;4990638;28;105674;-65
2023/08/04 07:04:24;;;;;;;2.07;0.90;;;;;;;15.94;100.00;95932.91;4990191;28;105990;-65
2023/08/04 07:06:52;;;;;;;0.60;0.60;;;;;;;15.92;100.00;95932.44;4975698;28;102005;-65
2023/08/04 07:09:19;;;;;;;0.70;0.70;;;;;;;15.98;100.00;95921.28;4964249;28;103896;-65
2023/08/04 07:11:46;;;;;;;0.97;0.70;;;;;;;16.03;100.00;95920.44;4950625;28;105073;-65
2023/08/04 07:14:13;;;;;;;0.90;0.90;;;;;;;16.08;100.00;95925.72;4951222;28;101924;-64
2023/08/04 07:16:39;;;;;;;0.70;0.70;;;;;;;16.13;100.00;95920.25;4950907;28;105798;-65
2023/08/04 07:19:06;;;;;;;1.60;0.73;;;;;;;16.19;100.00;95916.38;4953722;28;105207;-65
2023/08/04 07:21:33;;;;;;;1.13;0.70;;;;;;;16.27;100.00;95905.75;4950557;28;105292;-65
2023/08/04 07:24:01;;;;;;;1.17;0.80;;;;;;;16.39;100.00;95903.41;4950242;28;104113;-65
2023/08/04 07:26:28;;;;;;;0.60;0.60;;;;;;;16.51;100.00;95908.28;4950628;28;102223;-65
2023/08/04 07:28:55;;;;;;;0.70;0.70;;;;;;;16.57;100.00;95913.22;4950867;28;105476;-65
2023/08/04 07:31:22;;;;;;;1.00;0.73;;;;;;;16.58;100.00;95916.72;4950234;28;105745;-65
2023/08/04 07:33:49;;;;;;;0.67;0.60;;;;;;;16.68;100.00;95917.31;4950872;28;102383;-65
2023/08/04 07:36:15;;;;;;;1.30;0.80;;;;;;;16.73;100.00;95905.69;4950724;28;105278;-65
2023/08/04 07:38:42;;;;;;;0.90;0.90;;;;;;;16.85;100.00;95911.34;4951646;28;102938;-65
2023/08/04 07:41:17;;;;;;;0.70;0.67;;;;;;;16.92;100.00;95903.66;4954051;28;101853;-66
2023/08/04 07:43:44;;;;;;;0.93;0.80;;;;;;;17.02;100.00;95895.38;4950275;28;105127;-62
2023/08/04 07:46:13;;;;;;;0.70;0.70;;;;;;;17.07;100.00;95898.72;4951994;28;102163;-62
2023/08/04 07:48:40;;;;;;;1.03;0.67;;;;;;;17.18;100.00;95900.13;4951905;28;102531;-62
2023/08/04 07:51:07;;;;;;;1.43;0.70;;;;;;;17.11;100.00;95899.72;4949738;28;105883;-62
2023/08/04 07:53:33;;;;;;;0.60;0.60;;;;;;;17.13;100.00;95902.09;4950506;28;102042;-62
2023/08/04 07:56:00;;;;;;;1.63;0.60;;;;;;;17.22;100.00;95911.06;4950007;28;105810;-62
2023/08/04 07:58:29;;;;;;;1.77;0.60;;;;;;;17.30;100.00;95913.00;4950073;28;104231;-62
2023/08/04 08:00:56;;;;;;;0.83;0.80;;;;;;;17.34;100.00;95908.63;4955062;28;101859;-62
2023/08/04 08:03:23;;;;;;;2.13;0.90;;;;;;;17.29;100.00;95924.84;4949510;28;105427;-62
2023/08/04 08:05:49;;;;;;;1.00;0.83;;;;;;;17.04;100.00;95928.09;4950306;28;101950;-62
2023/08/04 08:08:17;;;;;;;4.00;1.20;;;;;;;16.69;100.00;95934.22;4950430;28;105689;-62
2023/08/04 08:10:44;;;;;;;1.77;1.13;;;;;;;16.70;100.00;95935.81;4949654;28;105999;-62
2023/08/04 08:13:10;;;;;;;1.37;0.80;;;;;;;16.63;100.00;95946.94;4949991;28;101820;-62
2023/08/04 08:15:39;;;;;;;2.57;1.30;;;;;;;16.77;100.00;95958.47;4951617;28;101754;-62
2023/08/04 08:18:06;;;;;;;1.17;0.90;;;;;;;16.74;100.00;95958.28;4950759;28;102781;-62
2023/08/04 08:20:32;;;;;;;1.53;1.10;;;;;;;16.78;100.00;95954.69;4951064;28;101926;-63
2023/08/04 08:22:59;;;;;;;0.83;0.83;;;;;;;16.82;100.00;95944.94;4952725;28;105295;-62
2023/08/04 08:25:26;;;;;;;1.10;1.00;;;;;;;16.96;100.00;95942.25;4950187;28;102211;-62
2023/08/04 08:27:55;;;;;;;5.07;1.10;;;;;;;17.02;100.00;95931.09;4949637;28;105676;-62
2023/08/04 08:30:21;;;;;;;1.47;1.30;;;;;;;16.93;100.00;95934.78;4950658;28;102836;-62
2023/08/04 08:32:49;;;;;;;1.37;1.20;;;;;;;16.86;100.00;95935.22;4951151;28;101966;-62
2023/08/04 08:35:17;;;;;;;1.40;0.90;;;;;;;16.99;100.00;95936.25;4951105;28;102771;-62
2023/08/04 08:37:44;;;;;;;1.77;1.03;;;;;;;17.06;100.00;95924.00;4950722;28;102683;-62
2023/08/04 08:40:12;;;;;;;2.10;1.27;;;;;;;17.04;100.00;95920.03;4949939;28;101937;-62
2023/08/04 08:42:39;;;;;;;1.37;1.27;;;;;;;17.25;100.00;95921.19;4951078;28;102828;-62
2023/08/04 08:45:06;;;;;;;1.00;0.90;;;;;;;17.39;100.00;95912.00;4952644;28;105170;-62
2023/08/04 08:47:35;;;;;;;2.23;1.20;;;;;;;17.43;100.00;95915.69;4951152;28;102679;-62
2023/08/04 08:50:06;;;;;;;1.63;1.13;;;;;;;17.58;100.00;95909.94;4950147;28;102776;-62
2023/08/04 08:52:38;;;;;;;2.60;1.27;;;;;;;17.34;100.00;95911.31;4950930;28;101899;-62
2023/08/04 08:55:06;;;;;;;1.43;0.90;;;;;;;17.29;100.00;95914.09;4951300;28;102608;-62
2023/08/04 08:57:33;;;;;;;1.73;0.93;;;;;;;17.34;100.00;95908.63;4949148;28;106110;-62
2023/08/04 09:00:02;;;;;;;1.10;1.00;;;;;;;17.49;100.00;95911.00;4950665;28;102330;-62
2023/08/04 09:02:29;;;;;;;0.90;0.90;;;;;;;17.57;100.00;95912.94;4949614;28;105275;-62
2023/08/04 09:04:56;;;;;;;0.93;0.80;;;;;;;17.68;100.00;95920.47;4949981;28;102564;-62
2023/08/04 09:07:24;;;;;;;1.17;0.93;;;;;;;17.91;100.00;95918.53;4952590;28;102349;-62
2023/08/04 09:09:51;;;;;;;2.10;1.37;;;;;;;17.81;100.00;95908.84;4953237;28;101972;-62
2023/08/04 09:12:18;;;;;;;1.07;1.03;;;;;;;18.15;100.00;95911.72;4954395;28;101858;-62
2023/08/04 09:14:49;;;;;;;1.83;1.20;;;;;;;18.41;100.00;95911.84;4953863;28;102645;-63
2023/08/04 09:17:41;;;;;;;1.47;1.10;;;;;;;18.49;100.00;95917.31;4952240;28;105914;-62
2023/08/04 09:20:11;;;;;;;1.27;1.00;;;;;;;18.65;100.00;95914.97;4929159;28;102078;-62
2023/08/04 09:22:44;;;;;;;1.00;0.90;;;;;;;18.88;100.00;95911.06;4953250;28;102365;-62
2023/08/04 09:25:11;;;;;;;1.70;1.10;;;;;;;18.77;100.00;95907.06;4952714;28;102590;-62
2023/08/04 09:27:39;;;;;;;1.50;1.00;;;;;;;18.92;100.00;95903.94;4953272;28;101950;-62
2023/08/04 09:30:08;;;;;;;0.90;0.90;;;;;;;18.91;100.00;95902.38;4954895;28;102463;-62
2023/08/04 09:32:42;;;;;;;1.73;1.17;;;;;;;19.14;100.00;95914.59;4952002;28;102064;-62
2023/08/04 09:35:09;;;;;;;3.43;1.00;;;;;;;19.49;100.00;95917.03;4953525;28;102586;-62
2023/08/04 09:37:37;;;;;;;1.53;0.90;;;;;;;19.49;100.00;95917.03;4951222;28;105302;-62
2023/08/04 09:40:14;;;;;;;2.77;1.00;;;;;;;19.76;100.00;95915.91;4953165;28;102009;-65
2023/08/04 09:42:42;;;;;;;0.80;0.80;;;;;;;19.97;100.00;95916.81;4951775;28;104006;-63
2023/08/04 09:45:12;;;;;;;1.27;1.17;;;;;;;20.11;100.00;95918.25;4952317;28;104696;-61
2023/08/04 09:47:39;;;;;;;1.10;1.10;;;;;;;20.17;100.00;95932.38;4951693;28;101857;-61
2023/08/04 09:50:10;;;;;;;1.10;0.90;;;;;;;20.04;100.00;95933.31;4951846;28;103701;-62
2023/08/04 09:52:37;;;;;;;2.50;1.20;;;;;;;19.85;100.00;95947.19;4955598;28;101862;-62
2023/08/04 09:55:09;;;;;;;1.27;1.00;;;;;;;19.78;100.00;95932.59;4951566;28;105347;-62
2023/08/04 09:57:38;;;;;;;3.50;1.00;;;;;;;19.62;100.00;95926.84;4952560;28;102650;-61
2023/08/04 10:00:07;;;;;;;0.93;0.93;;;;;;;19.64;100.00;95931.94;4951565;28;101908;-62
2023/08/04 10:02:37;;;;;;;1.63;1.10;;;;;;;19.88;100.00;95951.13;4953150;28;102768;-62
2023/08/04 10:05:04;;;;;;;1.53;0.90;;;;;;;19.94;100.00;95944.47;4951973;28;102661;-62
2023/08/04 10:07:32;;;;;;;1.47;1.13;;;;;;;19.86;100.00;95945.25;4952872;28;101874;-62
2023/08/04 10:10:00;;;;;;;0.80;0.80;;;;;;;19.76;100.00;95937.50;4951504;28;105430;-62
2023/08/04 10:12:28;;;;;;;1.67;1.03;;;;;;;19.91;100.00;95942.41;4955348;28;102708;-62
2023/08/04 10:14:57;;;;;;;1.60;1.17;;;;;;;19.77;100.00;95931.78;4951338;28;105443;-61
2023/08/04 10:17:24;;;;;;;1.70;0.90;;;;;;;19.86;100.00;95934.47;4950620;28;105398;-62
2023/08/04 10:20:02;;;;;;;0.90;0.90;;;;;;;19.95;100.00;95946.06;4950892;28;102050;-62
2023/08/04 10:22:29;;;;;;;1.60;1.00;;;;;;;20.25;100.00;95940.47;4952172;28;102378;-62
2023/08/04 10:24:56;;;;;;;2.07;1.10;;;;;;;20.13;100.00;95937.63;4951957;28;102995;-62
2023/08/04 10:27:23;;;;;;;1.27;1.10;;;;;;;20.06;100.00;95933.81;4951106;28;102203;-62
2023/08/04 10:30:04;;;;;;;2.23;1.00;;;;;;;20.23;100.00;95941.91;4952672;28;102693;-62
2023/08/04 10:32:38;;;;;;;1.20;0.93;;;;;;;20.33;100.00;95946.97;4951942;28;102591;-62
2023/08/04 10:35:06;;;;;;;2.13;0.97;;;;;;;20.30;100.00;95947.59;4954445;28;101973;-62
2023/08/04 10:37:45;;;;;;;1.77;1.03;;;;;;;20.20;100.00;95937.13;4951702;28;101773;-61
2023/08/04 10:40:12;;;;;;;1.30;0.90;;;;;;;20.18;100.00;95931.25;4952396;28;101726;-62
2023/08/04 10:42:58;;;;;;;3.27;1.20;;;;;;;20.21;100.00;95938.75;4952302;28;102599;-62
2023/08/04 10:45:50;;;;;;;1.50;1.10;;;;;;;19.92;100.00;95947.47;4951672;28;102721;-62
2023/08/04 10:48:19;;;;;;;1.80;1.10;;;;;;;19.54;100.00;95961.94;4952380;28;101737;-62
2023/08/04 10:50:46;;;;;;;1.00;0.90;;;;;;;19.52;100.00;95959.53;4950754;28;105646;-62
2023/08/04 10:53:13;;;;;;;1.37;1.00;;;;;;;19.61;100.00;95946.09;4951462;28;102696;-62
2023/08/04 10:55:52;;;;;;;1.83;1.20;;;;;;;19.63;100.00;95941.16;4950581;28;102042;-62
2023/08/04 10:58:19;;;;;;;1.30;1.20;;;;;;;19.45;100.00;95939.56;4954897;28;102398;-62
2023/08/04 11:00:47;;;;;;;1.33;1.10;;;;;;;19.66;100.00;95930.50;4951952;28;101887;-62
2023/08/04 11:03:22;;;;;;;2.53;1.07;;;;;;;19.99;100.00;95938.91;4951920;28;102446;-62
2023/08/04 11:05:50;;;;;;;1.40;1.00;;;;;;;19.88;100.00;95945.72;4951310;28;102614;-62
2023/08/04 11:08:17;;;;;;;1.93;1.07;;;;;;;20.27;100.00;95954.44;4951942;28;101862;-62
2023/08/04 11:10:46;;;;;;;1.23;1.00;;;;;;;20.42;100.00;95955.81;4950561;28;105625;-61
2023/08/04 11:13:13;;;;;;;1.27;0.80;;;;;;;20.68;100.00;95970.03;4950957;28;102672;-61
2023/08/04 11:15:43;;;;;;;1.93;1.10;;;;;;;20.88;100.00;95982.84;4950235;28;101931;-62
2023/08/04 11:18:13;;;;;;;1.53;0.90;;;;;;;21.00;100.00;95997.28;4950411;28;105426;-62
2023/08/04 11:20:41;;;;;;;1.70;1.07;;;;;;;20.78;100.00;96007.50;4952893;28;105153;-62